createdAt,value
2018-08-24T00:02:00.642Z,10.68
2018-08-24T00:04:28.856Z,8.73
2018-08-24T00:06:57.059Z,9.38
2018-08-24T00:09:36.480Z,11.23
2018-08-24T00:12:05.682Z,9.50
2018-08-24T00:14:33.859Z,8.10
2018-08-24T00:17:02.086Z,9.15
2018-08-24T00:19:30.496Z,10.67
2018-08-24T00:21:58.717Z,8.60
2018-08-24T00:24:26.907Z,10.43
2018-08-24T00:26:55.151Z,9.03
2018-08-24T00:29:23.367Z,11.12
2018-08-24T00:31:51.677Z,8.10
2018-08-24T00:34:19.843Z,16.13
2018-08-24T00:36:48.046Z,8.60
2018-08-24T00:39:16.280Z,8.47
2018-08-24T00:41:44.588Z,9.05
2018-08-24T00:44:12.779Z,9.53
2018-08-24T00:46:40.988Z,7.83
2018-08-24T00:49:09.212Z,8.03
2018-08-24T00:51:37.416Z,11.03
2018-08-24T00:54:05.737Z,9.30
2018-08-24T00:56:34.087Z,8.63
2018-08-24T00:59:02.300Z,8.63
2018-08-24T01:01:30.550Z,9.68
2018-08-24T01:03:59.685Z,7.40
2018-08-24T01:06:27.873Z,9.25
2018-08-24T01:08:56.080Z,9.00
2018-08-24T01:11:29.311Z,7.87
2018-08-24T01:13:57.519Z,11.47
2018-08-24T01:16:31.094Z,11.22
2018-08-24T01:18:59.907Z,7.95
2018-08-24T01:21:28.112Z,11.28
2018-08-24T01:23:56.327Z,7.15
2018-08-24T01:26:25.517Z,10.05
2018-08-24T01:28:54.348Z,9.77
2018-08-24T01:31:22.547Z,7.63
2018-08-24T01:33:50.727Z,7.50
2018-08-24T01:36:18.952Z,8.70
2018-08-24T01:38:47.139Z,7.42
2018-08-24T01:42:29.442Z,8.37
2018-08-24T01:44:58.405Z,6.77
2018-08-24T01:47:26.968Z,9.38
2018-08-24T01:49:55.174Z,6.80
2018-08-24T01:52:23.362Z,6.00
2018-08-24T01:54:51.593Z,8.23
2018-08-24T01:57:19.931Z,6.20
2018-08-24T01:59:48.140Z,5.90
2018-08-24T02:02:16.353Z,5.25
2018-08-24T02:04:44.524Z,6.93
2018-08-24T02:07:12.768Z,7.00
2018-08-24T02:09:40.951Z,8.30
2018-08-24T02:12:16.156Z,11.22
2018-08-24T02:14:44.345Z,7.87
2018-08-24T02:17:18.011Z,6.73
2018-08-24T02:19:51.636Z,6.03
2018-08-24T02:22:19.839Z,7.23
2018-08-24T02:24:48.107Z,7.37
2018-08-24T02:27:19.087Z,8.13
2018-08-24T02:29:47.275Z,7.27
2018-08-24T02:32:15.508Z,7.80
2018-08-24T02:34:43.724Z,10.33
2018-08-24T02:37:11.975Z,7.77
2018-08-24T02:39:40.195Z,8.17
2018-08-24T02:42:08.396Z,7.70
2018-08-24T02:44:36.581Z,8.20
2018-08-24T02:47:04.871Z,12.33
2018-08-24T02:49:33.091Z,8.90
2018-08-24T02:52:01.349Z,9.80
2018-08-24T02:54:29.540Z,8.40
2018-08-24T02:56:57.748Z,8.47
2018-08-24T02:59:25.942Z,9.15
2018-08-24T03:01:54.176Z,7.10
2018-08-24T03:04:22.400Z,7.22
2018-08-24T03:06:50.593Z,7.67
2018-08-24T03:09:18.840Z,9.67
2018-08-24T03:11:47.056Z,9.77
2018-08-24T03:14:18.671Z,8.10
2018-08-24T03:16:52.461Z,10.40
2018-08-24T03:19:20.675Z,11.47
2018-08-24T03:21:48.855Z,10.87
2018-08-24T03:24:17.692Z,7.90
2018-08-24T03:26:45.898Z,8.30
2018-08-24T03:29:17.016Z,9.58
2018-08-24T03:31:45.195Z,9.63
2018-08-24T03:34:13.384Z,8.67
2018-08-24T03:36:41.609Z,9.45
2018-08-24T03:39:10.355Z,8.80
2018-08-24T03:41:38.779Z,11.57
2018-08-24T03:44:10.714Z,9.37
2018-08-24T03:46:38.918Z,9.35
2018-08-24T03:49:08.059Z,7.45
2018-08-24T03:51:36.265Z,9.55
2018-08-24T03:54:09.541Z,8.77
2018-08-24T03:56:38.669Z,9.23
2018-08-24T03:59:06.891Z,13.43
2018-08-24T04:01:35.087Z,12.70
2018-08-24T04:04:03.432Z,10.82
2018-08-24T04:06:31.652Z,12.13
2018-08-24T04:08:59.899Z,10.57
2018-08-24T04:11:28.082Z,10.23
2018-08-24T04:13:59.968Z,15.77
2018-08-24T04:16:32.512Z,11.15
2018-08-24T04:19:00.727Z,14.90
2018-08-24T04:21:28.907Z,15.87
2018-08-24T04:23:57.161Z,9.40
2018-08-24T04:26:25.299Z,12.40
2018-08-24T04:28:56.587Z,11.23
2018-08-24T04:31:24.780Z,14.05
2018-08-24T04:33:53.019Z,10.13
2018-08-24T04:36:21.264Z,9.73
2018-08-24T04:38:49.468Z,11.20
2018-08-24T04:41:19.872Z,10.90
2018-08-24T04:43:52.546Z,15.63
2018-08-24T04:46:20.817Z,12.80
2018-08-24T04:48:49.614Z,13.08
2018-08-24T04:51:17.806Z,11.13
2018-08-24T04:53:46.073Z,10.67
2018-08-24T04:56:14.381Z,15.40
2018-08-24T04:58:42.563Z,12.13
2018-08-24T05:01:10.811Z,13.80
2018-08-24T05:03:39.004Z,14.33
2018-08-24T05:06:07.248Z,12.33
2018-08-24T05:08:35.458Z,11.50
2018-08-24T05:11:03.642Z,9.77
2018-08-24T05:13:31.958Z,15.30
2018-08-24T05:16:00.534Z,17.10
2018-08-24T05:18:28.731Z,17.13
2018-08-24T05:20:56.951Z,12.07
2018-08-24T05:23:25.319Z,13.57
2018-08-24T05:25:53.700Z,16.03
2018-08-24T05:28:21.887Z,22.67
2018-08-24T05:30:53.913Z,12.23
2018-08-24T05:33:22.097Z,11.43
2018-08-24T05:35:50.304Z,13.17
2018-08-24T05:38:18.502Z,12.85
2018-08-24T05:40:46.720Z,14.97
2018-08-24T05:43:14.938Z,13.80
2018-08-24T05:45:43.111Z,12.63
2018-08-24T05:48:11.360Z,10.37
2018-08-24T05:50:39.550Z,14.00
2018-08-24T05:53:08.116Z,13.03
2018-08-24T05:55:36.363Z,16.13
2018-08-24T05:58:04.612Z,12.57
2018-08-24T06:00:40.853Z,13.03
2018-08-24T06:03:09.725Z,11.03
2018-08-24T06:05:44.427Z,8.63
2018-08-24T06:08:12.604Z,18.23
2018-08-24T06:10:40.812Z,17.07
2018-08-24T06:13:09.835Z,12.45
2018-08-24T06:15:38.036Z,11.40
2018-08-24T06:18:06.271Z,8.28
2018-08-24T06:20:34.464Z,9.27
2018-08-24T06:23:02.699Z,6.97
2018-08-24T06:25:30.916Z,7.80
2018-08-24T06:27:59.137Z,13.10
2018-08-24T06:30:27.310Z,14.43
2018-08-24T06:32:55.630Z,9.23
2018-08-24T06:35:23.763Z,16.73
2018-08-24T06:37:51.972Z,8.48
2018-08-24T06:40:20.171Z,13.05
2018-08-24T06:42:48.490Z,10.60
2018-08-24T06:45:16.688Z,13.30
2018-08-24T06:47:44.913Z,11.93
2018-08-24T06:50:13.111Z,14.60
2018-08-24T06:52:41.320Z,11.60
2018-08-24T06:55:09.514Z,14.33
2018-08-24T06:57:37.835Z,10.82
2018-08-24T07:00:06.760Z,8.53
2018-08-24T07:02:34.957Z,14.90
2018-08-24T07:05:03.176Z,10.50
2018-08-24T07:07:31.361Z,8.87
2018-08-24T07:09:59.597Z,11.47
2018-08-24T07:12:27.771Z,9.83
2018-08-24T07:14:55.978Z,8.27
2018-08-24T07:17:29.536Z,9.30
2018-08-24T07:19:57.785Z,11.00
2018-08-24T07:22:26.072Z,18.90
2018-08-24T07:24:54.264Z,12.00
2018-08-24T07:27:22.625Z,10.50
2018-08-24T07:29:50.843Z,10.00
2018-08-24T07:32:19.040Z,10.40
2018-08-24T07:34:47.240Z,10.27
2018-08-24T07:37:15.431Z,10.32
2018-08-24T07:39:43.629Z,9.03
2018-08-24T07:42:12.007Z,15.00
2018-08-24T07:44:45.636Z,10.70
2018-08-24T07:47:13.819Z,13.30
2018-08-24T07:49:42.517Z,12.65
2018-08-24T07:52:10.689Z,8.27
2018-08-24T07:54:38.908Z,11.80
2018-08-24T07:57:07.533Z,11.97
2018-08-24T07:59:35.705Z,8.80
2018-08-24T08:02:03.886Z,10.43
2018-08-24T08:04:32.106Z,11.03
2018-08-24T08:07:00.329Z,10.18
2018-08-24T08:09:34.088Z,12.43
2018-08-24T08:12:02.928Z,12.47
2018-08-24T08:14:31.520Z,10.73
2018-08-24T08:17:00.879Z,9.40
2018-08-24T08:19:33.763Z,8.75
2018-08-24T08:22:01.980Z,9.63
2018-08-24T08:24:30.210Z,12.78
2018-08-24T08:26:58.336Z,10.87
2018-08-24T08:29:31.965Z,10.87
2018-08-24T08:32:00.187Z,15.50
2018-08-24T08:34:28.831Z,9.50
2018-08-24T08:36:57.043Z,9.70
2018-08-24T08:39:25.235Z,9.07
2018-08-24T08:41:53.487Z,9.28
2018-08-24T08:44:21.697Z,7.17
2018-08-24T08:46:49.971Z,10.18
2018-08-24T08:49:22.017Z,11.57
2018-08-24T08:51:50.238Z,7.63
2018-08-24T08:54:18.644Z,8.17
2018-08-24T08:56:46.857Z,6.43
2018-08-24T08:59:15.062Z,7.67
2018-08-24T09:01:43.280Z,6.03
2018-08-24T09:04:14.247Z,7.72
2018-08-24T09:06:43.396Z,6.03
2018-08-24T09:09:11.756Z,6.17
2018-08-24T09:11:39.960Z,10.23
2018-08-24T09:14:08.673Z,13.30
2018-08-24T09:16:36.863Z,5.40
2018-08-24T09:19:13.440Z,7.83
2018-08-24T09:21:47.095Z,5.10
2018-08-24T09:24:20.722Z,6.27
2018-08-24T09:26:54.076Z,7.10
2018-08-24T09:29:26.408Z,7.30
2018-08-24T09:31:55.028Z,7.00
2018-08-24T09:34:26.363Z,7.72
2018-08-24T09:36:54.557Z,4.20
2018-08-24T09:39:27.997Z,10.20
2018-08-24T09:41:58.111Z,4.90
2018-08-24T09:44:26.352Z,4.58
2018-08-24T09:49:07.312Z,4.67
2018-08-24T09:51:35.928Z,3.22
2018-08-24T09:54:05.480Z,3.83
2018-08-24T09:56:34.510Z,3.73
2018-08-24T09:59:02.753Z,3.60
2018-08-24T10:01:36.160Z,12.20
2018-08-24T10:04:10.545Z,4.45
2018-08-24T10:06:44.102Z,3.60
2018-08-24T10:09:14.099Z,3.47
2018-08-24T10:11:42.429Z,4.80
2018-08-24T10:14:10.949Z,3.30
2018-08-24T10:16:39.202Z,5.33
2018-08-24T10:19:10.273Z,2.43
2018-08-24T10:21:42.239Z,3.12
2018-08-24T10:24:10.601Z,4.55
2018-08-24T10:26:39.727Z,2.60
2018-08-24T10:29:08.247Z,4.10
2018-08-24T10:31:36.548Z,2.37
2018-08-24T10:34:04.779Z,5.97
2018-08-24T10:36:44.272Z,3.13
2018-08-24T10:39:12.674Z,3.23
2018-08-24T10:41:41.072Z,3.00
2018-08-24T10:44:09.350Z,2.57
2018-08-24T10:46:37.652Z,5.40
2018-08-24T10:49:05.851Z,3.17
2018-08-24T10:51:37.356Z,2.67
2018-08-24T10:54:06.244Z,4.37
2018-08-24T10:56:34.459Z,9.20
2018-08-24T10:59:02.704Z,7.65
2018-08-24T11:01:30.936Z,6.17
2018-08-24T11:03:59.122Z,4.10
2018-08-24T11:06:27.314Z,4.33
2018-08-24T11:08:55.659Z,5.70
2018-08-24T11:11:23.983Z,5.28
2018-08-24T11:13:52.178Z,6.62
2018-08-24T11:16:20.432Z,10.13
2018-08-24T11:18:48.638Z,12.98
2018-08-24T11:21:20.641Z,7.80
2018-08-24T11:23:48.849Z,5.33
2018-08-24T11:26:17.109Z,5.23
2018-08-24T11:28:45.616Z,7.90
2018-08-24T11:31:13.824Z,6.33
2018-08-24T11:33:42.060Z,8.40
2018-08-24T11:36:13.458Z,6.30
2018-08-24T11:38:41.712Z,6.00
2018-08-24T11:41:10.604Z,7.43
2018-08-24T11:43:38.884Z,6.87
2018-08-24T11:46:07.092Z,7.30
2018-08-24T11:48:35.656Z,4.35
2018-08-24T11:51:03.838Z,6.50
2018-08-24T11:53:32.107Z,4.28
2018-08-24T11:56:00.293Z,7.40
2018-08-24T11:58:28.551Z,3.67
2018-08-24T12:00:56.817Z,5.80
2018-08-24T12:03:25.019Z,3.67
2018-08-24T12:05:53.236Z,4.10
2018-08-24T12:08:24.323Z,3.70
2018-08-24T12:10:52.488Z,6.10
2018-08-24T12:13:20.663Z,6.73
2018-08-24T12:25:28.894Z,7.62
2018-08-24T12:27:57.283Z,2.70
2018-08-24T12:30:25.534Z,4.45
2018-08-24T12:32:53.733Z,3.72
2018-08-24T12:35:22.031Z,3.55
2018-08-24T12:37:50.225Z,4.00
2018-08-24T12:40:18.446Z,7.90
2018-08-24T12:42:46.723Z,4.87
2018-08-24T12:45:14.927Z,4.87
2018-08-24T12:47:43.149Z,4.28
2018-08-24T12:50:11.480Z,4.10
2018-08-24T12:52:39.760Z,4.17
2018-08-24T12:55:08.002Z,4.20
2018-08-24T12:57:36.233Z,2.93
2018-08-24T13:00:04.859Z,2.63
2018-08-24T13:02:33.083Z,3.27
2018-08-24T13:05:01.328Z,4.17
2018-08-24T13:07:29.562Z,2.57
2018-08-24T13:09:57.756Z,4.17
2018-08-24T13:12:25.994Z,2.50
2018-08-24T13:15:00.880Z,2.70
2018-08-24T13:17:29.033Z,4.83
2018-08-24T13:19:57.221Z,4.87
2018-08-24T13:22:29.031Z,5.73
2018-08-24T13:24:57.201Z,5.23
2018-08-24T13:27:25.410Z,6.23
2018-08-24T13:29:53.562Z,5.53
2018-08-24T13:32:22.314Z,3.85
2018-08-24T13:34:51.436Z,4.75
2018-08-24T13:37:19.609Z,5.03
2018-08-24T13:39:47.784Z,5.43
2018-08-24T13:42:16.028Z,7.70
2018-08-24T13:44:44.218Z,4.35
2018-08-24T13:47:12.526Z,4.80
2018-08-24T13:49:40.724Z,8.20
2018-08-24T13:52:08.928Z,6.43
2018-08-24T13:54:37.223Z,6.17
2018-08-24T13:57:17.576Z,4.43
2018-08-24T13:59:45.762Z,7.58
2018-08-24T14:02:14.236Z,4.37
2018-08-24T14:04:42.400Z,7.83
2018-08-24T14:07:10.659Z,6.10
2018-08-24T14:09:42.606Z,6.60
2018-08-24T14:12:10.816Z,3.17
2018-08-24T14:14:39.029Z,4.10
2018-08-24T14:17:07.231Z,4.22
2018-08-24T14:19:35.501Z,5.90
2018-08-24T14:22:03.701Z,4.00
2018-08-24T14:24:32.018Z,7.10
2018-08-24T14:27:03.382Z,7.60
2018-08-24T14:29:32.493Z,8.60
2018-08-24T14:32:00.711Z,4.03
2018-08-24T14:34:28.902Z,6.40
2018-08-24T14:36:57.325Z,7.60
2018-08-24T14:39:25.530Z,8.30
2018-08-24T14:41:56.852Z,5.28
2018-08-24T14:44:25.064Z,7.00
2018-08-24T14:46:53.236Z,7.50
2018-08-24T14:49:22.389Z,11.88
2018-08-24T14:51:50.605Z,5.90
2018-08-24T14:54:21.871Z,4.80
2018-08-24T14:56:50.064Z,10.33
2018-08-24T14:59:18.323Z,4.37
2018-08-24T15:01:47.261Z,3.90
2018-08-24T15:04:15.528Z,3.80
2018-08-24T15:06:43.660Z,6.40
2018-08-24T15:09:12.281Z,5.23
2018-08-24T15:11:44.468Z,3.60
2018-08-24T15:14:12.736Z,3.83
2018-08-24T15:16:40.952Z,10.93
2018-08-24T15:19:09.151Z,6.40
2018-08-24T15:21:37.416Z,5.07
2018-08-24T15:24:05.665Z,6.92
2018-08-24T15:26:38.287Z,7.70
2018-08-24T15:29:06.477Z,7.33
2018-08-24T15:31:34.679Z,5.97
2018-08-24T15:34:02.895Z,10.80
2018-08-24T15:36:31.103Z,5.63
2018-08-24T15:38:59.308Z,5.50
2018-08-24T15:41:35.595Z,8.27
2018-08-24T15:44:03.796Z,7.47
2018-08-24T15:46:32.036Z,8.20
2018-08-24T15:49:00.280Z,6.67
2018-08-24T15:51:28.484Z,9.10
2018-08-24T15:53:56.661Z,10.43
2018-08-24T15:56:27.680Z,9.68
2018-08-24T15:58:55.872Z,7.80
2018-08-24T16:01:24.092Z,12.33
2018-08-24T16:03:52.324Z,8.47
2018-08-24T16:06:20.525Z,9.23
2018-08-24T16:08:48.711Z,11.30
2018-08-24T16:11:19.872Z,9.90
2018-08-24T16:13:48.606Z,8.28
2018-08-24T16:16:16.821Z,9.23
2018-08-24T16:18:45.039Z,9.80
2018-08-24T16:21:13.279Z,7.40
2018-08-24T16:23:41.503Z,9.13
2018-08-24T16:26:23.137Z,7.60
2018-08-24T16:28:51.612Z,12.80
2018-08-24T16:31:20.108Z,7.97
2018-08-24T16:33:48.390Z,10.80
2018-08-24T16:36:16.642Z,11.28
2018-08-24T16:38:45.085Z,9.18
2018-08-24T16:41:13.482Z,9.23
2018-08-24T16:43:41.682Z,10.40
2018-08-24T16:46:09.980Z,17.10
2018-08-24T16:48:38.324Z,10.63
2018-08-24T16:51:06.545Z,11.20
2018-08-24T16:53:34.800Z,14.83
2018-08-24T16:56:07.275Z,11.30
2018-08-24T16:58:35.466Z,24.47
2018-08-24T17:15:43.394Z,10.60
2018-08-24T17:18:11.644Z,9.98
2018-08-24T17:20:39.897Z,11.10
2018-08-24T17:23:08.178Z,10.10
2018-08-24T17:25:37.309Z,12.10
2018-08-24T17:28:05.807Z,10.95
2018-08-24T17:30:34.060Z,11.03
2018-08-24T17:33:02.327Z,12.57
2018-08-24T17:35:30.611Z,8.43
2018-08-24T17:37:58.876Z,10.63
2018-08-24T17:40:27.128Z,9.77
2018-08-24T17:42:59.007Z,9.63
2018-08-24T17:45:27.275Z,9.80
2018-08-24T17:47:55.573Z,10.80
2018-08-24T17:50:23.823Z,10.10
2018-08-24T17:52:52.017Z,10.20
2018-08-24T17:55:20.189Z,10.23
2018-08-24T17:57:55.504Z,12.80
2018-08-24T18:00:23.757Z,12.23
2018-08-24T18:02:52.888Z,14.20
2018-08-24T18:05:21.175Z,13.48
2018-08-24T18:07:49.405Z,12.00
2018-08-24T18:10:17.711Z,13.50
2018-08-24T18:12:46.004Z,10.87
2018-08-24T18:15:14.280Z,13.10
2018-08-24T18:17:42.436Z,15.43
2018-08-24T18:20:10.712Z,10.00
2018-08-24T18:22:39.013Z,12.90
2018-08-24T18:25:07.272Z,10.10
2018-08-24T18:27:35.464Z,10.77
2018-08-24T18:30:03.730Z,10.80
2018-08-24T18:32:31.956Z,12.23
2018-08-24T18:35:00.248Z,12.40
2018-08-24T18:37:28.358Z,11.43
2018-08-24T18:39:56.634Z,11.97
2018-08-24T18:44:59.491Z,11.22
2018-08-24T18:47:27.694Z,14.80
2018-08-24T18:49:56.469Z,13.40
2018-08-24T18:52:24.655Z,10.53
2018-08-24T18:54:52.915Z,10.10
2018-08-24T18:57:21.568Z,9.65
2018-08-24T18:59:49.763Z,10.80
2018-08-24T19:02:17.952Z,10.58
2018-08-24T19:04:46.368Z,12.85
2018-08-24T19:07:14.604Z,12.30
2018-08-24T19:09:42.804Z,12.70
2018-08-24T19:12:16.297Z,12.97
2018-08-24T19:14:44.483Z,20.10
2018-08-24T19:17:20.999Z,10.63
2018-08-24T19:19:54.538Z,11.83
2018-08-24T19:22:22.812Z,12.28
2018-08-24T19:24:51.098Z,10.63
2018-08-24T19:27:19.314Z,12.60
2018-08-24T19:29:52.823Z,12.07
2018-08-24T19:32:20.997Z,11.73
2018-08-24T19:34:49.199Z,11.18
2018-08-24T19:37:17.414Z,10.93
2018-08-24T19:39:50.889Z,19.63
2018-08-24T19:42:24.727Z,12.70
2018-08-24T19:44:53.159Z,11.13
2018-08-24T19:47:30.026Z,13.40
2018-08-24T19:49:58.211Z,10.90
2018-08-24T19:52:26.647Z,13.30
2018-08-24T19:54:54.857Z,15.07
2018-08-24T19:57:28.399Z,15.45
2018-08-24T19:59:57.540Z,11.88
2018-08-24T20:02:25.747Z,9.60
2018-08-24T20:04:53.994Z,10.70
2018-08-24T20:07:27.568Z,15.80
2018-08-24T20:10:01.103Z,12.73
2018-08-24T20:12:29.316Z,11.10
2018-08-24T20:15:05.936Z,12.67
2018-08-24T20:17:39.240Z,13.62
2018-08-24T20:20:10.452Z,14.68
2018-08-24T20:22:38.627Z,14.23
2018-08-24T20:25:06.862Z,11.60
2018-08-24T20:27:35.863Z,15.02
2018-08-24T20:30:04.220Z,13.53
2018-08-24T20:32:32.492Z,16.23
2018-08-24T20:35:00.774Z,13.15
2018-08-24T20:37:28.986Z,14.63
2018-08-24T20:39:57.309Z,10.70
2018-08-24T20:42:25.455Z,9.40
2018-08-24T20:44:58.241Z,14.00
2018-08-24T20:47:34.059Z,11.30
2018-08-24T20:50:02.330Z,11.83
2018-08-24T20:52:30.518Z,14.85
2018-08-24T20:54:58.771Z,12.65
2018-08-24T20:57:26.931Z,10.00
2018-08-24T20:59:58.774Z,13.05
2018-08-24T21:02:27.093Z,11.12
2018-08-24T21:04:55.324Z,15.80
2018-08-24T21:07:23.580Z,16.60
2018-08-24T21:09:52.163Z,12.03
2018-08-24T21:12:20.390Z,11.30
2018-08-24T21:14:48.653Z,12.82
2018-08-24T21:17:16.771Z,13.80
2018-08-24T21:19:44.979Z,14.37
2018-08-24T21:22:13.189Z,9.25
2018-08-24T21:24:41.593Z,13.93
2018-08-24T21:27:09.824Z,10.80
2018-08-24T21:29:40.955Z,10.87
2018-08-24T21:32:09.143Z,11.20
2018-08-24T21:34:37.361Z,11.63
2018-08-24T21:37:06.473Z,10.65
2018-08-24T21:39:34.716Z,12.37
2018-08-24T21:42:03.018Z,10.87
2018-08-24T21:44:31.462Z,12.33
2018-08-24T21:47:04.012Z,10.10
2018-08-24T21:49:32.217Z,10.53
2018-08-24T21:52:00.444Z,9.95
2018-08-24T21:54:28.672Z,10.70
2018-08-24T21:56:56.866Z,11.63
2018-08-24T21:59:25.060Z,9.80
2018-08-24T22:01:56.834Z,10.17
2018-08-24T22:04:25.009Z,10.03
2018-08-24T22:06:53.207Z,14.50
2018-08-24T22:09:21.831Z,13.28
2018-08-24T22:11:50.068Z,12.33
2018-08-24T22:14:18.263Z,11.12
2018-08-24T22:16:49.703Z,13.50
2018-08-24T22:19:17.855Z,11.27
2018-08-24T22:21:46.766Z,10.10
2018-08-24T22:24:14.928Z,8.27
2018-08-24T22:26:43.178Z,16.93
2018-08-24T22:29:11.701Z,9.80
2018-08-24T22:31:39.906Z,11.00
2018-08-24T22:34:08.140Z,8.45
2018-08-24T22:36:36.340Z,10.90
2018-08-24T22:39:06.231Z,11.00
2018-08-24T22:41:34.419Z,11.90
2018-08-24T22:44:02.594Z,8.30
2018-08-24T22:46:31.085Z,8.00
2018-08-24T22:48:59.297Z,9.17
2018-08-24T22:51:27.695Z,15.10
2018-08-24T22:53:56.043Z,7.00
2018-08-24T22:56:24.384Z,11.00
2018-08-24T22:58:52.632Z,12.33
2018-08-24T23:01:20.811Z,9.20
2018-08-24T23:03:48.999Z,9.00
2018-08-24T23:06:17.191Z,9.50
2018-08-24T23:08:45.484Z,13.93
2018-08-24T23:11:13.709Z,7.77
2018-08-24T23:13:41.964Z,13.48
2018-08-24T23:16:10.156Z,9.10
2018-08-24T23:18:38.363Z,10.30
2018-08-24T23:21:06.616Z,7.60
2018-08-24T23:23:34.938Z,5.78
2018-08-24T23:26:03.179Z,7.70
2018-08-24T23:28:31.351Z,16.00
2018-08-24T23:30:59.559Z,14.50
2018-08-24T23:33:27.752Z,12.35
2018-08-24T23:35:55.964Z,9.00
2018-08-24T23:38:24.303Z,10.67
2018-08-24T23:40:52.527Z,8.27
2018-08-24T23:43:20.708Z,8.97
2018-08-24T23:45:48.930Z,9.97
2018-08-24T23:48:17.137Z,8.40
2018-08-24T23:50:45.361Z,8.73
2018-08-24T23:53:13.567Z,8.35
2018-08-24T23:55:41.839Z,9.77
2018-08-24T23:58:10.014Z,10.43
